createdAt,value
2022-08-29T00:01:55.764Z,66.66
2022-08-29T00:07:16.930Z,66.54
2022-08-29T00:12:38.479Z,66.65
2022-08-29T00:17:59.809Z,66.78
2022-08-29T00:23:20.954Z,66.71
2022-08-29T00:28:41.867Z,66.73
2022-08-29T00:34:03.312Z,66.52
2022-08-29T00:39:24.297Z,66.64
2022-08-29T00:44:46.232Z,66.35
2022-08-29T00:50:10.056Z,66.76
2022-08-29T00:55:34.489Z,66.53
2022-08-29T01:00:55.634Z,66.48
2022-08-29T01:06:16.560Z,66.49
2022-08-29T01:11:56.543Z,66.59
2022-08-29T01:17:34.198Z,66.84
2022-08-29T01:23:21.269Z,66.54
2022-08-29T01:28:47.580Z,66.74
2022-08-29T01:34:11.101Z,66.58
2022-08-29T01:39:35.581Z,67.08
2022-08-29T01:44:58.925Z,66.81
2022-08-29T01:50:20.490Z,66.61
2022-08-29T01:55:42.477Z,66.48
2022-08-29T02:01:03.060Z,66.75
2022-08-29T02:06:23.772Z,66.60
2022-08-29T02:11:46.498Z,66.81
2022-08-29T02:17:08.576Z,66.81
2022-08-29T02:22:29.372Z,66.43
2022-08-29T02:27:53.235Z,66.49
2022-08-29T02:33:14.028Z,66.68
2022-08-29T02:38:35.885Z,66.62
2022-08-29T02:43:56.927Z,66.55
2022-08-29T02:49:17.637Z,66.42
2022-08-29T02:54:39.045Z,66.51
2022-08-29T03:00:00.447Z,66.36
2022-08-29T03:05:24.925Z,66.48
2022-08-29T03:10:45.805Z,66.29
2022-08-29T03:16:07.004Z,66.59
2022-08-29T03:21:28.352Z,66.39
2022-08-29T03:26:56.537Z,66.53
2022-08-29T03:32:18.021Z,66.68
2022-08-29T03:37:38.755Z,66.58
2022-08-29T03:42:59.472Z,66.50
2022-08-29T03:48:20.267Z,66.65
2022-08-29T03:53:41.453Z,66.54
2022-08-29T03:59:02.500Z,66.38
2022-08-29T04:04:44.124Z,66.69
2022-08-29T04:10:07.189Z,66.80
2022-08-29T04:15:29.652Z,67.00
2022-08-29T04:20:50.864Z,66.65
2022-08-29T04:26:35.937Z,66.69
2022-08-29T04:31:57.535Z,66.70
2022-08-29T04:37:18.079Z,66.43
2022-08-29T04:42:39.311Z,66.64
2022-08-29T04:48:03.528Z,66.61
2022-08-29T04:53:25.759Z,66.92
2022-08-29T04:58:47.423Z,66.79
2022-08-29T05:04:12.521Z,66.53
2022-08-29T05:09:35.239Z,66.76
2022-08-29T05:14:56.691Z,66.58
2022-08-29T05:20:17.954Z,66.96
2022-08-29T05:25:39.399Z,67.13
2022-08-29T05:31:01.266Z,66.98
2022-08-29T05:36:22.520Z,67.35
2022-08-29T05:41:43.821Z,67.12
2022-08-29T05:47:07.519Z,67.17
2022-08-29T05:52:29.441Z,67.70
2022-08-29T05:57:53.504Z,67.81
2022-08-29T06:03:15.003Z,67.53
2022-08-29T06:08:35.942Z,67.65
2022-08-29T06:13:56.900Z,67.32
2022-08-29T06:19:17.985Z,67.09
2022-08-29T06:24:39.829Z,66.93
2022-08-29T06:30:02.022Z,66.61
2022-08-29T06:35:23.227Z,65.71
2022-08-29T06:40:43.922Z,65.97
2022-08-29T06:46:05.428Z,66.10
2022-08-29T06:51:28.117Z,65.53
2022-08-29T06:56:49.893Z,65.84
2022-08-29T07:02:10.742Z,66.02
2022-08-29T07:07:31.539Z,65.51
2022-08-29T07:12:56.976Z,65.75
2022-08-29T07:18:18.234Z,65.03
2022-08-29T07:23:39.554Z,65.26
2022-08-29T07:29:03.599Z,64.83
2022-08-29T07:34:24.752Z,64.87
2022-08-29T07:39:45.660Z,64.86
2022-08-29T07:45:09.501Z,65.25
2022-08-29T07:50:30.356Z,65.05
2022-08-29T07:55:50.952Z,65.32
2022-08-29T08:01:21.199Z,65.42
2022-08-29T08:06:43.355Z,65.29
2022-08-29T08:12:08.384Z,65.07
2022-08-29T08:17:29.551Z,64.44
2022-08-29T08:22:50.235Z,65.63
2022-08-29T08:28:13.815Z,65.02
2022-08-29T08:33:38.840Z,65.19
2022-08-29T08:39:00.069Z,65.45
2022-08-29T08:44:27.152Z,65.56
2022-08-29T08:50:00.448Z,65.39
2022-08-29T08:55:47.658Z,65.30
2022-08-29T09:01:45.612Z,64.71
2022-08-29T09:07:44.910Z,64.77
2022-08-29T09:13:30.343Z,64.42
2022-08-29T09:18:54.123Z,65.11
2022-08-29T09:24:38.946Z,64.46
2022-08-29T09:30:03.206Z,64.65
2022-08-29T09:35:29.389Z,64.20
2022-08-29T09:40:55.653Z,64.35
2022-08-29T09:46:26.552Z,64.01
2022-08-29T09:51:49.162Z,63.43
2022-08-29T09:57:19.197Z,63.69
2022-08-29T10:02:52.370Z,63.74
2022-08-29T10:08:36.823Z,63.60
2022-08-29T10:14:26.372Z,62.95
2022-08-29T10:19:47.619Z,62.74
2022-08-29T10:25:37.461Z,62.59
2022-08-29T10:31:23.248Z,62.72
2022-08-29T10:36:50.691Z,62.58
2022-08-29T10:42:16.327Z,62.52
2022-08-29T10:47:43.215Z,62.62
2022-08-29T10:53:16.693Z,61.55
2022-08-29T10:59:03.252Z,61.95
2022-08-29T11:04:38.167Z,61.96
2022-08-29T11:10:23.477Z,61.64
2022-08-29T11:15:52.819Z,61.65
2022-08-29T11:21:48.796Z,60.58
2022-08-29T11:27:28.984Z,61.25
2022-08-29T11:33:02.908Z,61.15
2022-08-29T11:39:00.233Z,61.61
2022-08-29T11:44:30.322Z,60.52
2022-08-29T11:49:52.106Z,60.09
2022-08-29T11:55:34.276Z,60.12
2022-08-29T12:00:56.851Z,60.81
2022-08-29T12:06:28.917Z,60.68
2022-08-29T12:11:58.882Z,60.15
2022-08-29T12:17:19.652Z,60.35
2022-08-29T12:23:01.499Z,60.30
2022-08-29T12:28:23.668Z,59.88
2022-08-29T12:34:23.524Z,59.83
2022-08-29T12:40:19.179Z,59.43
2022-08-29T12:45:43.635Z,59.40
2022-08-29T12:51:05.184Z,58.70
2022-08-29T12:56:26.296Z,59.25
2022-08-29T13:01:49.985Z,58.88
2022-08-29T13:07:18.273Z,58.81
2022-08-29T13:12:39.113Z,58.78
2022-08-29T13:18:01.756Z,58.47
2022-08-29T13:23:29.681Z,58.57
2022-08-29T13:28:53.284Z,58.73
2022-08-29T13:34:18.050Z,58.51
2022-08-29T13:39:43.824Z,58.26
2022-08-29T13:45:09.328Z,58.62
2022-08-29T13:50:31.340Z,58.36
2022-08-29T13:55:51.913Z,58.70
2022-08-29T14:06:58.270Z,58.13
2022-08-29T14:12:19.781Z,58.04
2022-08-29T14:17:42.214Z,57.97
2022-08-29T14:23:03.481Z,57.58
2022-08-29T14:28:24.330Z,58.02
2022-08-29T14:33:45.168Z,58.09
2022-08-29T14:39:13.188Z,58.37
2022-08-29T14:44:34.674Z,58.07
2022-08-29T14:49:55.875Z,57.43
2022-08-29T14:55:17.931Z,57.61
2022-08-29T15:00:39.088Z,57.73
2022-08-29T15:06:00.121Z,57.50
2022-08-29T15:11:20.958Z,57.80
2022-08-29T15:16:41.992Z,57.36
2022-08-29T15:22:03.292Z,57.38
2022-08-29T15:27:27.619Z,57.87
2022-08-29T15:32:49.430Z,57.89
2022-08-29T15:38:10.341Z,57.96
2022-08-29T15:43:31.077Z,58.27
2022-08-29T15:48:52.724Z,58.05
2022-08-29T15:54:14.886Z,58.27
2022-08-29T15:59:56.983Z,58.58
2022-08-29T16:05:16.330Z,57.99
2022-08-29T16:10:37.634Z,58.30
2022-08-29T16:15:58.749Z,58.56
2022-08-29T16:21:20.881Z,58.88
2022-08-29T16:26:45.597Z,59.37
2022-08-29T16:32:08.031Z,58.93
2022-08-29T16:37:29.433Z,59.25
2022-08-29T16:42:55.247Z,59.57
2022-08-29T16:48:17.927Z,59.66
2022-08-29T16:53:39.477Z,59.68
2022-08-29T16:59:00.461Z,59.73
2022-08-29T17:04:24.827Z,59.66
2022-08-29T17:09:45.955Z,59.15
2022-08-29T17:15:07.162Z,59.27
2022-08-29T17:20:28.157Z,59.18
2022-08-29T17:25:48.752Z,59.36
2022-08-29T17:31:09.729Z,59.52
2022-08-29T17:36:31.435Z,59.66
2022-08-29T17:41:52.632Z,60.24
2022-08-29T17:47:13.717Z,59.87
2022-08-29T17:52:34.566Z,59.79
2022-08-29T17:57:55.528Z,59.93
2022-08-29T18:03:17.070Z,59.50
2022-08-29T18:08:39.074Z,59.67
2022-08-29T18:14:01.207Z,59.96
2022-08-29T18:19:22.909Z,60.24
2022-08-29T18:24:43.645Z,60.28
2022-08-29T18:30:07.025Z,60.81
2022-08-29T18:35:29.705Z,60.76
2022-08-29T18:40:51.191Z,60.71
2022-08-29T18:46:15.737Z,60.40
2022-08-29T18:51:37.175Z,60.74
2022-08-29T18:56:58.379Z,60.77
2022-08-29T19:02:19.591Z,60.79
2022-08-29T19:07:40.883Z,61.10
2022-08-29T19:13:01.596Z,60.70
2022-08-29T19:18:22.435Z,60.53
2022-08-29T19:23:46.226Z,60.73
2022-08-29T19:29:15.717Z,60.98
2022-08-29T19:34:36.796Z,60.85
2022-08-29T19:39:57.676Z,61.25
2022-08-29T19:45:19.648Z,60.86
2022-08-29T19:50:41.530Z,61.32
2022-08-29T19:56:03.757Z,61.67
2022-08-29T20:01:26.591Z,61.69
2022-08-29T20:06:48.097Z,61.62
2022-08-29T20:12:09.031Z,61.72
2022-08-29T20:17:31.387Z,61.28
2022-08-29T20:23:00.034Z,61.68
2022-08-29T20:28:20.721Z,61.50
2022-08-29T20:33:43.774Z,61.83
2022-08-29T20:39:06.182Z,61.79
2022-08-29T20:44:34.022Z,61.73
2022-08-29T20:49:56.646Z,61.90
2022-08-29T20:55:18.702Z,61.88
2022-08-29T21:00:39.860Z,61.96
2022-08-29T21:06:03.951Z,62.11
2022-08-29T21:11:25.566Z,62.08
2022-08-29T21:16:46.353Z,62.04
2022-08-29T21:22:09.749Z,61.55
2022-08-29T21:27:30.846Z,61.86
2022-08-29T21:32:51.491Z,62.10
2022-08-29T21:38:12.598Z,62.17
2022-08-29T21:43:33.305Z,62.39
2022-08-29T21:48:56.697Z,62.54
2022-08-29T21:54:18.449Z,62.64
2022-08-29T21:59:39.657Z,62.46
2022-08-29T22:05:00.568Z,62.40
2022-08-29T22:10:25.698Z,62.30
2022-08-29T22:16:05.254Z,62.20
2022-08-29T22:21:27.474Z,62.33
2022-08-29T22:26:48.422Z,61.94
2022-08-29T22:32:09.473Z,62.44
2022-08-29T22:37:31.899Z,62.32
2022-08-29T22:42:52.459Z,62.26
2022-08-29T22:48:16.386Z,62.10
2022-08-29T22:53:37.414Z,62.28
2022-08-29T22:59:00.033Z,62.38
2022-08-29T23:04:21.227Z,62.39
2022-08-29T23:09:43.189Z,62.33
2022-08-29T23:15:07.509Z,62.29
2022-08-29T23:20:29.598Z,61.98
2022-08-29T23:25:50.399Z,62.33
2022-08-29T23:31:11.185Z,62.43
2022-08-29T23:36:32.179Z,62.36
2022-08-29T23:41:53.738Z,62.29
2022-08-29T23:47:14.376Z,62.04
2022-08-29T23:52:35.054Z,62.08
2022-08-29T23:57:55.639Z,61.94
